createdAt,value
2017-10-21T00:00:23.908Z,20.39
2017-10-21T00:02:52.197Z,20.41
2017-10-21T00:05:20.826Z,20.40
2017-10-21T00:07:49.099Z,20.39
2017-10-21T00:10:17.476Z,20.40
2017-10-21T00:12:45.772Z,20.38
2017-10-21T00:15:14.220Z,20.38
2017-10-21T00:17:42.532Z,20.36
2017-10-21T00:20:10.996Z,20.34
2017-10-21T00:22:39.300Z,20.36
2017-10-21T00:25:07.757Z,20.31
2017-10-21T00:27:36.056Z,20.32
2017-10-21T00:30:04.432Z,20.34
2017-10-21T00:32:32.756Z,20.31
2017-10-21T00:35:01.088Z,20.29
2017-10-21T00:37:29.424Z,20.28
2017-10-21T00:39:57.725Z,20.29
2017-10-21T00:42:26.921Z,20.30
2017-10-21T00:44:55.351Z,20.32
2017-10-21T00:47:23.875Z,20.32
2017-10-21T00:49:52.217Z,20.24
2017-10-21T00:52:20.645Z,20.27
2017-10-21T00:54:48.940Z,20.25
2017-10-21T00:57:17.607Z,20.26
2017-10-21T00:59:46.087Z,20.27
2017-10-21T01:02:14.552Z,20.28
2017-10-21T01:04:42.906Z,20.25
2017-10-21T01:07:11.233Z,20.24
2017-10-21T01:09:39.764Z,20.25
2017-10-21T01:12:08.066Z,20.22
2017-10-21T01:14:36.492Z,20.18
2017-10-21T01:17:04.491Z,20.22
2017-10-21T01:19:32.843Z,20.19
2017-10-21T01:22:01.250Z,20.17
2017-10-21T01:24:29.587Z,20.22
2017-10-21T01:26:57.943Z,20.21
2017-10-21T01:29:26.199Z,20.22
2017-10-21T01:31:54.495Z,20.18
2017-10-21T01:34:22.771Z,20.15
2017-10-21T01:36:51.091Z,20.17
2017-10-21T01:39:19.415Z,20.16
2017-10-21T01:41:47.724Z,20.15
2017-10-21T01:44:15.980Z,20.14
2017-10-21T01:46:44.333Z,20.11
2017-10-21T01:49:12.612Z,20.14
2017-10-21T01:51:41.102Z,20.12
2017-10-21T01:54:09.541Z,20.14
2017-10-21T01:56:37.847Z,20.10
2017-10-21T01:59:06.126Z,20.10
2017-10-21T02:01:34.592Z,20.12
2017-10-21T02:04:02.868Z,20.12
2017-10-21T02:06:31.199Z,20.12
2017-10-21T02:08:59.509Z,20.12
2017-10-21T02:11:27.808Z,20.12
2017-10-21T02:13:56.176Z,20.11
2017-10-21T02:16:24.675Z,20.13
2017-10-21T02:18:53.107Z,20.10
2017-10-21T02:21:21.404Z,20.07
2017-10-21T02:23:49.761Z,20.10
2017-10-21T02:26:18.167Z,20.11
2017-10-21T02:28:46.615Z,20.08
2017-10-21T02:31:15.065Z,20.07
2017-10-21T02:33:43.380Z,20.05
2017-10-21T02:36:11.753Z,20.05
2017-10-21T02:39:39.324Z,20.06
2017-10-21T02:42:07.672Z,20.05
2017-10-21T02:44:35.959Z,20.03
2017-10-21T02:47:04.392Z,20.07
2017-10-21T02:49:32.677Z,20.08
2017-10-21T02:52:01.023Z,20.05
2017-10-21T02:54:29.384Z,20.05
2017-10-21T02:56:57.732Z,20.04
2017-10-21T02:59:26.033Z,20.04
2017-10-21T03:01:54.403Z,20.00
2017-10-21T03:04:22.671Z,20.01
2017-10-21T03:06:51.027Z,19.99
2017-10-21T03:09:19.382Z,20.01
2017-10-21T03:11:47.711Z,19.98
2017-10-21T03:14:15.988Z,19.99
2017-10-21T03:16:44.333Z,19.97
2017-10-21T03:19:12.791Z,19.98
2017-10-21T03:21:41.105Z,20.01
2017-10-21T03:24:09.380Z,20.00
2017-10-21T03:26:44.112Z,20.00
2017-10-21T03:29:12.621Z,19.99
2017-10-21T03:31:40.948Z,20.00
2017-10-21T03:34:09.283Z,19.98
2017-10-21T03:36:37.583Z,19.98
2017-10-21T03:39:05.856Z,19.99
2017-10-21T03:41:34.240Z,20.00
2017-10-21T03:44:02.586Z,19.99
2017-10-21T03:46:30.980Z,19.95
2017-10-21T03:48:59.452Z,19.98
2017-10-21T03:51:27.963Z,19.97
2017-10-21T03:53:56.228Z,19.95
2017-10-21T03:56:24.524Z,19.92
2017-10-21T03:58:52.844Z,19.96
2017-10-21T04:01:21.264Z,19.95
2017-10-21T04:03:49.723Z,19.98
2017-10-21T04:06:18.027Z,19.97
2017-10-21T04:08:46.356Z,19.95
2017-10-21T04:11:14.822Z,19.96
2017-10-21T04:13:43.120Z,19.95
2017-10-21T04:16:11.420Z,19.95
2017-10-21T04:18:40.008Z,19.95
2017-10-21T04:21:08.371Z,19.96
2017-10-21T04:23:36.676Z,19.90
2017-10-21T04:26:04.970Z,19.88
2017-10-21T04:28:33.309Z,19.92
2017-10-21T04:31:01.821Z,19.91
2017-10-21T04:33:30.256Z,19.93
2017-10-21T04:35:58.559Z,19.90
2017-10-21T04:38:27.003Z,19.88
2017-10-21T04:40:55.329Z,19.90
2017-10-21T04:43:23.692Z,19.91
2017-10-21T04:45:52.004Z,19.87
2017-10-21T04:48:20.351Z,19.87
2017-10-21T04:50:48.671Z,19.81
2017-10-21T04:53:16.929Z,19.81
2017-10-21T04:55:45.283Z,19.82
2017-10-21T04:58:13.764Z,19.83
2017-10-21T05:00:42.047Z,19.84
2017-10-21T05:03:10.396Z,19.87
2017-10-21T05:05:38.764Z,19.88
2017-10-21T05:08:07.052Z,19.95
2017-10-21T05:10:35.344Z,19.97
2017-10-21T05:13:03.825Z,20.00
2017-10-21T05:15:32.123Z,19.99
2017-10-21T05:18:00.584Z,20.03
2017-10-21T05:20:28.872Z,20.05
2017-10-21T05:22:57.224Z,20.07
2017-10-21T05:25:25.528Z,20.11
2017-10-21T05:27:53.801Z,20.10
2017-10-21T05:30:22.087Z,20.10
2017-10-21T05:32:50.678Z,20.10
2017-10-21T05:35:19.012Z,20.14
2017-10-21T05:37:47.297Z,20.13
2017-10-21T05:40:15.593Z,20.13
2017-10-21T05:42:43.871Z,20.11
2017-10-21T05:45:13.195Z,20.12
2017-10-21T05:47:41.482Z,20.12
2017-10-21T05:50:09.840Z,20.13
2017-10-21T05:52:38.164Z,20.14
2017-10-21T05:55:06.570Z,20.15
2017-10-21T05:57:35.057Z,20.15
2017-10-21T06:00:03.351Z,20.16
2017-10-21T06:02:31.855Z,20.18
2017-10-21T06:05:00.227Z,20.18
2017-10-21T06:07:28.574Z,20.19
2017-10-21T06:09:56.858Z,20.21
2017-10-21T06:12:26.181Z,20.21
2017-10-21T06:14:55.020Z,20.20
2017-10-21T06:17:32.548Z,20.22
2017-10-21T06:20:00.868Z,20.22
2017-10-21T06:22:29.568Z,20.22
2017-10-21T06:24:58.063Z,20.24
2017-10-21T06:27:26.494Z,20.24
2017-10-21T06:29:55.175Z,20.24
2017-10-21T06:32:23.608Z,20.25
2017-10-21T06:34:51.915Z,20.26
2017-10-21T06:37:20.387Z,20.26
2017-10-21T06:39:48.681Z,20.27
2017-10-21T06:42:17.273Z,20.28
2017-10-21T06:44:45.807Z,20.29
2017-10-21T06:47:14.549Z,20.30
2017-10-21T06:49:43.196Z,20.31
2017-10-21T06:52:11.683Z,20.32
2017-10-21T06:54:40.125Z,20.31
2017-10-21T06:57:08.880Z,20.34
2017-10-21T06:59:37.199Z,20.34
2017-10-21T07:02:05.556Z,20.34
2017-10-21T07:04:34.682Z,20.35
2017-10-21T07:07:03.669Z,20.35
2017-10-21T07:09:32.771Z,20.36
2017-10-21T07:12:01.152Z,20.37
2017-10-21T07:14:29.447Z,20.38
2017-10-21T07:16:58.059Z,20.38
2017-10-21T07:19:26.327Z,20.39
2017-10-21T07:21:54.733Z,20.39
2017-10-21T07:24:23.067Z,20.39
2017-10-21T07:26:51.628Z,20.40
2017-10-21T07:29:20.887Z,20.41
2017-10-21T07:31:49.252Z,20.40
2017-10-21T07:34:17.645Z,20.41
2017-10-21T07:36:46.050Z,20.43
2017-10-21T07:39:14.478Z,20.43
2017-10-21T07:41:42.916Z,20.42
2017-10-21T07:44:11.731Z,20.42
2017-10-21T07:46:40.020Z,20.42
2017-10-21T07:49:08.339Z,20.43
2017-10-21T07:51:36.680Z,20.43
2017-10-21T07:54:05.145Z,20.43
2017-10-21T07:56:33.692Z,20.44
2017-10-21T07:59:02.038Z,20.43
2017-10-21T08:01:30.364Z,20.44
2017-10-21T08:03:58.644Z,20.44
2017-10-21T08:06:26.952Z,20.45
2017-10-21T08:08:55.288Z,20.45
2017-10-21T08:11:23.690Z,20.46
2017-10-21T08:13:52.000Z,20.55
2017-10-21T08:16:20.427Z,20.68
2017-10-21T08:18:48.748Z,20.79
2017-10-21T08:21:17.193Z,20.73
2017-10-21T08:23:45.604Z,20.69
2017-10-21T08:26:14.216Z,20.64
2017-10-21T08:28:42.664Z,20.58
2017-10-21T08:31:11.041Z,20.57
2017-10-21T08:33:39.397Z,20.55
2017-10-21T08:36:07.872Z,20.56
2017-10-21T08:38:36.167Z,20.57
2017-10-21T08:41:04.627Z,20.57
2017-10-21T08:43:33.031Z,20.58
2017-10-21T08:46:01.398Z,20.58
2017-10-21T08:48:29.836Z,20.58
2017-10-21T08:50:58.136Z,20.59
2017-10-21T08:53:26.665Z,20.59
2017-10-21T08:55:55.308Z,20.59
2017-10-21T08:58:24.163Z,20.59
2017-10-21T09:00:52.881Z,20.60
2017-10-21T09:03:22.068Z,20.60
2017-10-21T09:05:50.483Z,20.59
2017-10-21T09:08:18.900Z,20.61
2017-10-21T09:10:48.068Z,20.60
2017-10-21T09:13:16.475Z,20.61
2017-10-21T09:15:44.792Z,20.62
2017-10-21T09:18:13.198Z,20.61
2017-10-21T09:20:41.552Z,20.61
2017-10-21T09:23:10.521Z,20.67
2017-10-21T09:25:38.835Z,20.66
2017-10-21T09:28:07.127Z,20.68
2017-10-21T09:30:35.448Z,20.70
2017-10-21T09:33:04.391Z,20.69
2017-10-21T09:35:32.845Z,20.67
2017-10-21T09:38:01.865Z,20.69
2017-10-21T09:40:30.385Z,20.67
2017-10-21T09:42:59.093Z,20.70
2017-10-21T09:45:28.316Z,20.67
2017-10-21T09:47:56.644Z,20.67
2017-10-21T09:50:26.207Z,20.67
2017-10-21T09:52:54.633Z,20.66
2017-10-21T09:55:23.716Z,20.62
2017-10-21T09:57:52.203Z,20.63
2017-10-21T10:00:20.512Z,20.63
2017-10-21T10:02:48.809Z,20.61
2017-10-21T10:05:17.201Z,20.59
2017-10-21T10:07:45.490Z,20.55
2017-10-21T10:10:13.840Z,20.53
2017-10-21T10:12:42.162Z,20.50
2017-10-21T10:15:11.316Z,20.50
2017-10-21T10:17:40.251Z,20.49
2017-10-21T10:20:08.614Z,20.47
2017-10-21T10:22:37.958Z,20.47
2017-10-21T10:25:06.435Z,20.45
2017-10-21T10:27:34.981Z,20.43
2017-10-21T10:30:03.987Z,20.41
2017-10-21T10:32:33.017Z,20.38
2017-10-21T10:35:01.496Z,20.38
2017-10-21T10:37:33.305Z,20.37
2017-10-21T10:40:01.701Z,20.34
2017-10-21T10:42:30.543Z,20.28
2017-10-21T10:44:58.971Z,20.29
2017-10-21T10:47:27.498Z,20.40
2017-10-21T10:49:55.798Z,20.52
2017-10-21T10:52:25.013Z,20.54
2017-10-21T10:54:53.545Z,20.60
2017-10-21T10:57:23.052Z,20.65
2017-10-21T10:59:52.688Z,20.72
2017-10-21T11:02:21.015Z,20.64
2017-10-21T11:04:49.332Z,20.61
2017-10-21T11:07:17.704Z,20.65
2017-10-21T11:09:46.005Z,20.59
2017-10-21T11:12:21.520Z,20.65
2017-10-21T11:14:50.105Z,20.63
2017-10-21T11:17:19.143Z,20.68
2017-10-21T11:19:47.920Z,20.70
2017-10-21T11:22:16.775Z,20.70
2017-10-21T11:24:45.539Z,20.71
2017-10-21T11:27:13.927Z,20.71
2017-10-21T11:29:42.348Z,20.72
2017-10-21T11:32:10.643Z,20.79
2017-10-21T11:34:38.924Z,20.78
2017-10-21T11:37:07.529Z,20.85
2017-10-21T11:39:37.330Z,20.89
2017-10-21T11:42:05.832Z,20.92
2017-10-21T11:44:34.100Z,20.98
2017-10-21T11:47:02.656Z,21.02
2017-10-21T11:49:31.729Z,21.02
2017-10-21T11:52:00.099Z,20.98
2017-10-21T11:54:28.422Z,20.98
2017-10-21T11:56:56.738Z,20.95
2017-10-21T11:59:25.211Z,21.00
2017-10-21T12:01:53.785Z,20.97
2017-10-21T12:04:22.455Z,20.91
2017-10-21T12:06:51.016Z,20.93
2017-10-21T12:09:19.502Z,20.91
2017-10-21T12:11:47.819Z,20.94
2017-10-21T12:14:16.915Z,20.95
2017-10-21T12:16:45.630Z,20.96
2017-10-21T12:19:14.065Z,21.02
2017-10-21T12:21:42.512Z,21.02
2017-10-21T12:24:10.821Z,21.00
2017-10-21T12:26:39.126Z,20.95
2017-10-21T12:29:07.572Z,20.94
2017-10-21T12:31:36.553Z,20.96
2017-10-21T12:34:04.923Z,21.01
2017-10-21T12:36:33.596Z,20.95
2017-10-21T12:39:02.325Z,21.02
2017-10-21T12:41:30.766Z,21.02
2017-10-21T12:43:59.189Z,21.00
2017-10-21T12:46:28.699Z,21.00
2017-10-21T12:48:57.067Z,21.01
2017-10-21T12:51:25.379Z,21.01
2017-10-21T12:53:53.815Z,20.99
2017-10-21T12:56:22.315Z,20.98
2017-10-21T12:58:50.761Z,21.01
2017-10-21T13:01:19.135Z,20.98
2017-10-21T13:03:47.596Z,20.95
2017-10-21T13:06:16.048Z,20.96
2017-10-21T13:08:44.351Z,20.98
2017-10-21T13:11:12.689Z,20.96
2017-10-21T13:13:41.232Z,20.97
2017-10-21T13:16:09.672Z,20.96
2017-10-21T13:18:38.109Z,20.95
2017-10-21T13:21:06.581Z,20.98
2017-10-21T13:23:35.527Z,20.93
2017-10-21T13:26:03.842Z,20.94
2017-10-21T13:28:32.140Z,20.93
2017-10-21T13:31:00.578Z,20.93
2017-10-21T13:33:30.567Z,20.91
2017-10-21T13:35:59.635Z,20.93
2017-10-21T13:38:28.057Z,20.92
2017-10-21T13:40:56.372Z,20.95
2017-10-21T13:43:24.797Z,20.93
2017-10-21T13:45:53.101Z,20.89
2017-10-21T13:48:21.423Z,20.92
2017-10-21T13:50:50.224Z,20.88
2017-10-21T13:53:18.807Z,20.90
2017-10-21T13:55:47.159Z,20.94
2017-10-21T13:58:15.470Z,20.91
2017-10-21T14:00:43.888Z,20.92
2017-10-21T14:03:12.522Z,20.92
2017-10-21T14:05:41.372Z,20.93
2017-10-21T14:08:09.897Z,20.91
2017-10-21T14:10:38.795Z,20.92
2017-10-21T14:13:07.120Z,20.90
2017-10-21T14:15:35.556Z,20.94
2017-10-21T14:18:04.048Z,20.90
2017-10-21T14:20:32.529Z,20.92
2017-10-21T14:23:00.895Z,20.91
2017-10-21T14:25:29.484Z,20.91
2017-10-21T14:27:57.834Z,20.95
2017-10-21T14:30:26.219Z,20.90
2017-10-21T14:32:55.947Z,20.89
2017-10-21T14:35:24.622Z,20.90
2017-10-21T14:37:53.071Z,20.91
2017-10-21T14:40:21.514Z,20.90
2017-10-21T14:42:49.975Z,20.90
2017-10-21T14:45:18.381Z,20.91
2017-10-21T14:47:46.796Z,20.91
2017-10-21T14:50:16.140Z,20.91
2017-10-21T14:52:44.619Z,20.90
2017-10-21T14:55:13.081Z,20.85
2017-10-21T14:57:41.403Z,20.87
2017-10-21T15:00:10.188Z,20.90
2017-10-21T15:02:39.029Z,20.91
2017-10-21T15:05:07.555Z,20.90
2017-10-21T15:07:36.466Z,20.87
2017-10-21T15:10:05.831Z,20.90
2017-10-21T15:12:34.375Z,20.90
2017-10-21T15:15:03.668Z,20.87
2017-10-21T15:17:32.617Z,20.86
2017-10-21T15:20:01.047Z,20.87
2017-10-21T15:22:29.521Z,20.82
2017-10-21T15:24:57.958Z,20.85
2017-10-21T15:27:26.606Z,20.84
2017-10-21T15:29:55.193Z,20.81
2017-10-21T15:32:23.719Z,20.84
2017-10-21T15:34:52.021Z,20.83
2017-10-21T15:37:21.820Z,20.79
2017-10-21T15:39:50.136Z,20.73
2017-10-21T15:42:18.451Z,20.70
2017-10-21T15:44:46.899Z,20.78
2017-10-21T15:47:15.493Z,20.79
2017-10-21T15:49:43.924Z,20.73
2017-10-21T15:52:12.385Z,20.69
2017-10-21T15:54:40.788Z,20.66
2017-10-21T15:57:09.099Z,20.66
2017-10-21T15:59:37.671Z,20.57
2017-10-21T16:02:05.979Z,20.54
2017-10-21T16:04:34.435Z,20.50
2017-10-21T16:07:02.882Z,20.49
2017-10-21T16:09:31.333Z,20.47
2017-10-21T16:12:00.082Z,20.48
2017-10-21T16:14:28.390Z,20.41
2017-10-21T16:16:57.209Z,20.39
2017-10-21T16:19:25.562Z,20.34
2017-10-21T16:21:53.907Z,20.30
2017-10-21T16:24:22.371Z,20.27
2017-10-21T16:26:50.863Z,20.23
2017-10-21T16:29:19.520Z,20.27
2017-10-21T16:31:47.936Z,20.29
2017-10-21T16:34:16.237Z,20.32
2017-10-21T16:36:44.591Z,20.34
2017-10-21T16:39:12.843Z,20.36
2017-10-21T16:41:41.196Z,20.38
2017-10-21T16:44:09.575Z,20.37
2017-10-21T16:46:38.104Z,20.31
2017-10-21T16:49:07.136Z,20.31
2017-10-21T16:51:35.620Z,20.29
2017-10-21T16:54:03.936Z,20.33
2017-10-21T16:56:32.245Z,20.29
2017-10-21T16:59:00.758Z,20.29
2017-10-21T17:01:29.217Z,20.28
2017-10-21T17:03:57.557Z,20.27
2017-10-21T17:06:25.895Z,20.27
2017-10-21T17:08:54.336Z,20.24
2017-10-21T17:11:22.651Z,20.25
2017-10-21T17:13:50.940Z,20.25
2017-10-21T17:16:19.669Z,20.24
2017-10-21T17:18:48.692Z,20.21
2017-10-21T17:21:17.045Z,20.24
2017-10-21T17:23:45.455Z,20.25
2017-10-21T17:26:14.047Z,20.25
2017-10-21T17:28:42.428Z,20.20
2017-10-21T17:31:10.967Z,20.21
2017-10-21T17:33:39.266Z,20.22
2017-10-21T17:36:07.688Z,20.21
2017-10-21T17:38:36.345Z,20.19
2017-10-21T17:41:04.921Z,20.22
2017-10-21T17:43:33.323Z,20.18
2017-10-21T17:46:01.624Z,20.20
2017-10-21T17:48:30.084Z,20.16
2017-10-21T17:50:58.483Z,20.17
2017-10-21T17:53:27.476Z,20.17
2017-10-21T17:55:55.883Z,20.17
2017-10-21T17:58:24.340Z,20.17
2017-10-21T18:00:52.661Z,20.15
2017-10-21T18:03:20.987Z,20.15
2017-10-21T18:05:49.651Z,20.13
2017-10-21T18:08:18.191Z,20.14
2017-10-21T18:10:47.632Z,20.13
2017-10-21T18:13:16.012Z,20.11
2017-10-21T18:15:44.372Z,20.13
2017-10-21T18:18:12.662Z,20.12
2017-10-21T18:20:41.452Z,20.11
2017-10-21T18:23:09.796Z,20.13
2017-10-21T18:25:38.360Z,20.13
2017-10-21T18:28:06.804Z,20.16
2017-10-21T18:30:35.340Z,20.13
2017-10-21T18:33:03.663Z,20.14
2017-10-21T18:35:32.613Z,20.17
2017-10-21T18:38:01.839Z,20.13
2017-10-21T18:40:30.188Z,20.14
2017-10-21T18:42:58.564Z,20.15
2017-10-21T18:45:27.915Z,20.17
2017-10-21T18:47:56.813Z,20.18
2017-10-21T18:50:26.751Z,20.12
2017-10-21T18:52:55.161Z,20.12
2017-10-21T18:55:23.503Z,20.11
2017-10-21T18:57:52.248Z,20.14
2017-10-21T19:00:20.551Z,20.14
2017-10-21T19:02:48.835Z,20.15
2017-10-21T19:05:17.227Z,20.15
2017-10-21T19:07:45.504Z,20.17
2017-10-21T19:10:14.412Z,20.21
2017-10-21T19:12:43.378Z,20.21
2017-10-21T19:15:11.804Z,20.23
2017-10-21T19:17:40.136Z,20.23
2017-10-21T19:20:09.486Z,20.25
2017-10-21T19:22:37.999Z,20.27
2017-10-21T19:25:07.140Z,20.30
2017-10-21T19:27:35.572Z,20.30
2017-10-21T19:30:05.201Z,20.32
2017-10-21T19:32:33.649Z,20.32
2017-10-21T19:35:02.006Z,20.31
2017-10-21T19:37:31.005Z,20.35
2017-10-21T19:39:59.339Z,20.36
2017-10-21T19:42:27.928Z,20.38
2017-10-21T19:44:56.269Z,20.39
2017-10-21T19:47:24.624Z,20.38
2017-10-21T19:49:52.930Z,20.38
2017-10-21T19:52:21.287Z,20.39
2017-10-21T19:54:49.696Z,20.39
2017-10-21T19:57:18.108Z,20.38
2017-10-21T19:59:46.677Z,20.38
2017-10-21T20:02:16.126Z,20.39
2017-10-21T20:04:44.452Z,20.38
2017-10-21T20:07:12.958Z,20.41
2017-10-21T20:09:43.679Z,20.40
2017-10-21T20:12:13.232Z,20.43
2017-10-21T20:14:42.274Z,20.41
2017-10-21T20:17:11.310Z,20.41
2017-10-21T20:19:39.752Z,20.41
2017-10-21T20:22:08.099Z,20.42
2017-10-21T20:24:36.395Z,20.41
2017-10-21T20:27:04.756Z,20.39
2017-10-21T20:29:33.236Z,20.39
2017-10-21T20:32:02.592Z,20.40
2017-10-21T20:34:30.891Z,20.40
2017-10-21T20:36:59.353Z,20.41
2017-10-21T20:39:28.292Z,20.39
2017-10-21T20:41:56.668Z,20.37
2017-10-21T20:44:25.024Z,20.33
2017-10-21T20:46:53.456Z,20.30
2017-10-21T20:49:21.813Z,20.28
2017-10-21T20:51:51.113Z,20.26
2017-10-21T20:54:19.484Z,20.26
2017-10-21T20:56:47.808Z,20.24
2017-10-21T20:59:16.560Z,20.25
2017-10-21T21:01:44.947Z,20.24
2017-10-21T21:04:13.406Z,20.22
2017-10-21T21:06:42.350Z,20.21
2017-10-21T21:09:10.692Z,20.21
2017-10-21T21:11:39.054Z,20.22
2017-10-21T21:14:07.473Z,20.22
2017-10-21T21:16:35.932Z,20.24
2017-10-21T21:19:04.916Z,20.20
2017-10-21T21:21:33.245Z,20.21
2017-10-21T21:24:01.557Z,20.18
2017-10-21T21:26:30.107Z,20.19
2017-10-21T21:28:58.756Z,20.18
2017-10-21T21:31:27.807Z,20.17
2017-10-21T21:33:56.202Z,20.19
2017-10-21T21:36:24.666Z,20.15
2017-10-21T21:38:53.095Z,20.18
2017-10-21T21:41:21.732Z,20.21
2017-10-21T21:43:50.235Z,20.20
2017-10-21T21:48:45.944Z,20.17
2017-10-21T21:51:14.493Z,20.17
2017-10-21T21:53:43.274Z,20.17
2017-10-21T21:56:11.810Z,20.18
2017-10-21T21:58:40.267Z,20.15
2017-10-21T22:01:08.716Z,20.14
2017-10-21T22:03:37.140Z,20.13
2017-10-21T22:06:05.443Z,20.13
2017-10-21T22:08:33.954Z,20.13
2017-10-21T22:11:02.524Z,20.13
2017-10-21T22:13:30.803Z,20.12
2017-10-21T22:15:59.564Z,20.12
2017-10-21T22:18:28.151Z,20.13
2017-10-21T22:20:56.528Z,20.11
2017-10-21T22:23:25.176Z,20.13
2017-10-21T22:25:53.530Z,20.14
2017-10-21T22:28:21.863Z,20.12
2017-10-21T22:30:50.332Z,20.11
2017-10-21T22:33:19.797Z,20.13
2017-10-21T22:35:48.149Z,20.07
2017-10-21T22:38:16.431Z,20.08
2017-10-21T22:40:45.742Z,20.07
2017-10-21T22:43:14.119Z,20.08
2017-10-21T22:45:42.603Z,20.07
2017-10-21T22:48:11.337Z,20.09
2017-10-21T22:50:40.208Z,20.07
2017-10-21T22:53:08.596Z,20.05
2017-10-21T22:55:37.174Z,20.05
2017-10-21T22:58:05.515Z,20.05
2017-10-21T23:00:33.834Z,20.05
2017-10-21T23:03:02.161Z,20.04
2017-10-21T23:05:30.661Z,20.03
2017-10-21T23:07:59.133Z,20.02
2017-10-21T23:10:27.585Z,20.03
2017-10-21T23:12:55.871Z,20.00
2017-10-21T23:15:24.235Z,19.99
2017-10-21T23:17:52.567Z,20.00
2017-10-21T23:20:20.879Z,19.99
2017-10-21T23:22:49.347Z,19.97
2017-10-21T23:25:18.568Z,19.98
2017-10-21T23:27:47.294Z,19.98
2017-10-21T23:30:15.679Z,19.95
2017-10-21T23:32:44.164Z,19.95
2017-10-21T23:35:13.621Z,19.92
2017-10-21T23:37:42.320Z,19.93
2017-10-21T23:40:11.593Z,19.92
2017-10-21T23:42:39.968Z,19.93
2017-10-21T23:45:09.690Z,19.93
2017-10-21T23:47:38.292Z,19.92
2017-10-21T23:50:06.640Z,19.91
2017-10-21T23:52:35.029Z,19.90
2017-10-21T23:55:03.471Z,19.89
2017-10-21T23:57:38.851Z,19.89
